Time;durP1;ratioP1;P1;durP2;ratioP2;P2;SDS_P1;SDS_P2;PMS_P1;PMS_P2;Temp;Humidity;BMP_temperature;BMP_pressure;BME280_temperature;BME280_humidity;BME280_pressure;Samples;Min_cycle;Max_cycle;Signal;HPM_P1;HPM_P2
2021/11/14 00:02:17;;;;;;;10.15;7.40;;;;;;;;;;5012995;28;20467;-61
2021/11/14 00:04:46;;;;;;;9.18;5.57;;;;;;;;;;5014129;28;20124;-61
2021/11/14 00:07:13;;;;;;;6.00;5.40;;;;;;;;;;5014798;28;20379;-61
2021/11/14 00:09:38;;;;;;;7.25;6.20;;;;;;;;;;5017103;28;20030;-61
2021/11/14 00:12:04;;;;;;;11.57;7.10;;;;;;;;;;5012845;28;20535;-61
2021/11/14 00:14:29;;;;;;;12.13;7.05;;;;;;;;;;5013240;28;20030;-59
2021/11/14 00:16:55;;;;;;;7.30;6.50;;;;;;;;;;5017700;28;20025;-58
2021/11/14 00:19:20;;;;;;;10.02;6.43;;;;;;;;;;5013482;28;20033;-58
2021/11/14 00:21:46;;;;;;;8.63;6.97;;;;;;;;;;5013856;28;20072;-58
2021/11/14 00:24:13;;;;;;;8.90;6.15;;;;;;;;;;5014247;28;20469;-58
2021/11/14 00:26:40;;;;;;;10.38;6.10;;;;;;;;;;5012658;28;20117;-58
2021/11/14 00:29:06;;;;;;;7.07;6.05;;;;;;;;;;5014350;28;20041;-58
2021/11/14 00:31:32;;;;;;;7.90;5.45;;;;;;;;;;5014501;28;20037;-59
2021/11/14 00:33:58;;;;;;;10.32;7.20;;;;;;;;;;5015227;28;20364;-58
2021/11/14 00:36:28;;;;;;;6.97;5.55;;;;;;;;;;5015161;28;20030;-58
2021/11/14 00:38:53;;;;;;;6.50;5.82;;;;;;;;;;5013578;28;20022;-59
2021/11/14 00:41:21;;;;;;;7.30;6.15;;;;;;;;;;5012458;28;20033;-58
2021/11/14 00:43:47;;;;;;;7.75;6.70;;;;;;;;;;5011855;28;20064;-58
2021/11/14 00:46:14;;;;;;;6.57;5.03;;;;;;;;;;5018477;28;20061;-58
2021/11/14 00:48:43;;;;;;;9.77;6.38;;;;;;;;;;5029292;28;20034;-57
2021/11/14 00:51:11;;;;;;;6.60;5.43;;;;;;;;;;5015890;28;20052;-58
2021/11/14 00:53:36;;;;;;;7.82;6.18;;;;;;;;;;5016588;28;20029;-58
2021/11/14 00:56:02;;;;;;;10.10;5.80;;;;;;;;;;5013432;28;20026;-58
2021/11/14 00:58:28;;;;;;;6.85;5.50;;;;;;;;;;5013917;28;20038;-58
2021/11/14 01:00:54;;;;;;;7.28;6.32;;;;;;;;;;5011079;28;20030;-58
2021/11/14 01:03:20;;;;;;;9.95;5.80;;;;;;;;;;5014442;28;20033;-58
2021/11/14 01:05:45;;;;;;;6.93;5.53;;;;;;;;;;5014195;28;20056;-58
2021/11/14 01:08:12;;;;;;;6.47;5.75;;;;;;;;;;5012297;28;20034;-58
2021/11/14 01:10:42;;;;;;;6.25;4.70;;;;;;;;;;5012405;28;20408;-59
2021/11/14 01:13:08;;;;;;;5.97;5.40;;;;;;;;;;5013764;28;20037;-59
2021/11/14 01:15:34;;;;;;;6.65;5.88;;;;;;;;;;5013688;28;20903;-58
2021/11/14 01:18:00;;;;;;;6.85;6.00;;;;;;;;;;5012813;28;20501;-58
2021/11/14 01:20:33;;;;;;;8.98;5.93;;;;;;;;;;5016021;28;20026;-58
2021/11/14 01:23:02;;;;;;;8.63;6.20;;;;;;;;;;5016288;28;20038;-58
2021/11/14 01:25:27;;;;;;;5.70;4.70;;;;;;;;;;5015143;28;20466;-58
2021/11/14 01:27:53;;;;;;;6.05;5.43;;;;;;;;;;5014983;28;20049;-58
2021/11/14 01:30:25;;;;;;;6.70;6.05;;;;;;;;;;5013675;28;20044;-59
2021/11/14 01:32:52;;;;;;;6.80;5.38;;;;;;;;;;5013065;28;20379;-59
2021/11/14 01:35:18;;;;;;;7.95;5.63;;;;;;;;;;5018740;28;20414;-58
2021/11/14 01:37:46;;;;;;;6.50;5.45;;;;;;;;;;5020040;28;20029;-58
2021/11/14 01:40:17;;;;;;;6.13;5.35;;;;;;;;;;5013735;28;20533;-58
2021/11/14 01:42:42;;;;;;;6.53;5.60;;;;;;;;;;5017362;28;20368;-58
2021/11/14 01:45:09;;;;;;;6.50;5.82;;;;;;;;;;5015934;28;20052;-59
2021/11/14 01:47:35;;;;;;;6.60;5.10;;;;;;;;;;5018651;28;20036;-59
2021/11/14 01:50:00;;;;;;;5.25;4.30;;;;;;;;;;5019370;28;20360;-58
2021/11/14 01:52:29;;;;;;;5.97;4.65;;;;;;;;;;5013535;28;20038;-59
2021/11/14 01:54:55;;;;;;;7.35;5.55;;;;;;;;;;5015829;28;20116;-59
2021/11/14 01:57:21;;;;;;;11.10;5.47;;;;;;;;;;5017987;28;20406;-57
2021/11/14 01:59:47;;;;;;;5.38;4.57;;;;;;;;;;5014887;28;20091;-57
2021/11/14 02:02:13;;;;;;;5.88;5.25;;;;;;;;;;5015969;28;20472;-57
2021/11/14 02:04:40;;;;;;;7.93;6.55;;;;;;;;;;5018847;28;20041;-57
2021/11/14 02:07:07;;;;;;;5.78;5.18;;;;;;;;;;5018836;28;20044;-57
2021/11/14 02:09:35;;;;;;;6.15;4.57;;;;;;;;;;5018159;28;20113;-57
2021/11/14 02:12:05;;;;;;;18.08;5.70;;;;;;;;;;5016388;28;20120;-57
2021/11/14 02:14:31;;;;;;;7.60;6.30;;;;;;;;;;5018924;28;20402;-57
2021/11/14 02:16:57;;;;;;;6.72;5.10;;;;;;;;;;5014803;28;20729;-57
2021/11/14 02:19:23;;;;;;;8.55;5.13;;;;;;;;;;5015343;28;20554;-57
2021/11/14 02:21:49;;;;;;;5.70;5.18;;;;;;;;;;5018708;28;20065;-57
2021/11/14 02:24:15;;;;;;;6.60;5.28;;;;;;;;;;5018467;28;20064;-57
2021/11/14 02:26:41;;;;;;;6.90;4.80;;;;;;;;;;5018129;28;20048;-57
2021/11/14 02:29:07;;;;;;;6.45;5.55;;;;;;;;;;5015904;28;20037;-57
2021/11/14 02:31:32;;;;;;;7.22;5.35;;;;;;;;;;5017057;28;20041;-57
2021/11/14 02:33:58;;;;;;;6.68;5.55;;;;;;;;;;5013756;28;20967;-57
2021/11/14 02:36:24;;;;;;;8.52;5.82;;;;;;;;;;5015356;28;20029;-57
2021/11/14 02:38:50;;;;;;;7.70;5.68;;;;;;;;;;5013328;28;20036;-57
2021/11/14 02:41:16;;;;;;;10.88;6.07;;;;;;;;;;5015384;28;20048;-57
2021/11/14 02:43:44;;;;;;;7.63;6.15;;;;;;;;;;5015898;28;20033;-57
2021/11/14 02:46:10;;;;;;;5.60;4.95;;;;;;;;;;5017434;28;20022;-57
2021/11/14 02:48:36;;;;;;;5.45;4.85;;;;;;;;;;5016826;28;20427;-58
2021/11/14 02:51:06;;;;;;;8.82;5.18;;;;;;;;;;5013163;28;20076;-58
2021/11/14 02:53:34;;;;;;;4.53;3.97;;;;;;;;;;5017629;28;20057;-58
2021/11/14 02:55:59;;;;;;;11.88;5.72;;;;;;;;;;5014004;28;20085;-58
2021/11/14 02:58:28;;;;;;;7.00;4.13;;;;;;;;;;5012105;28;20038;-57
2021/11/14 03:01:11;;;;;;;5.68;5.18;;;;;;;;;;5015713;28;20666;-57
2021/11/14 03:03:41;;;;;;;6.55;5.00;;;;;;;;;;5015067;28;20100;-57
2021/11/14 03:06:09;;;;;;;4.82;4.22;;;;;;;;;;5015382;28;20029;-57
2021/11/14 03:08:34;;;;;;;5.13;4.63;;;;;;;;;;5007225;28;20539;-57
2021/11/14 03:11:00;;;;;;;6.30;5.00;;;;;;;;;;5015180;28;20044;-57
2021/11/14 03:13:25;;;;;;;6.43;4.85;;;;;;;;;;5016235;28;20100;-57
2021/11/14 03:15:55;;;;;;;6.70;4.63;;;;;;;;;;5016240;28;20089;-57
2021/11/14 03:18:22;;;;;;;6.68;5.35;;;;;;;;;;5013059;28;20037;-59
2021/11/14 03:20:49;;;;;;;5.93;5.32;;;;;;;;;;4997352;28;20888;-58
2021/11/14 03:23:16;;;;;;;5.60;4.57;;;;;;;;;;5016967;28;20037;-59
2021/11/14 03:25:43;;;;;;;4.70;4.00;;;;;;;;;;5013794;28;20026;-56
2021/11/14 03:28:09;;;;;;;18.67;5.53;;;;;;;;;;5013729;28;20033;-59
2021/11/14 03:30:35;;;;;;;5.75;4.60;;;;;;;;;;5017866;28;20435;-59
2021/11/14 03:33:02;;;;;;;4.80;4.25;;;;;;;;;;5020265;28;20048;-59
2021/11/14 03:35:37;;;;;;;5.90;4.40;;;;;;;;;;5015237;28;20483;-57
2021/11/14 03:38:03;;;;;;;5.57;4.65;;;;;;;;;;5015755;28;20029;-58
2021/11/14 03:40:28;;;;;;;5.53;4.63;;;;;;;;;;5015945;28;20546;-58
2021/11/14 03:42:54;;;;;;;11.45;5.63;;;;;;;;;;5014881;28;20022;-58
2021/11/14 03:45:19;;;;;;;4.88;3.85;;;;;;;;;;5014820;28;20091;-58
2021/11/14 03:47:45;;;;;;;4.40;3.95;;;;;;;;;;5015249;28;20447;-58
2021/11/14 03:50:11;;;;;;;5.30;4.22;;;;;;;;;;5015090;28;20042;-58
2021/11/14 03:52:38;;;;;;;5.25;4.75;;;;;;;;;;5017141;28;20041;-57
2021/11/14 03:55:05;;;;;;;4.00;3.58;;;;;;;;;;5014412;28;20025;-58
2021/11/14 03:57:30;;;;;;;4.07;3.67;;;;;;;;;;5014339;28;20030;-58
2021/11/14 03:59:56;;;;;;;5.20;3.95;;;;;;;;;;5013304;28;20153;-57
2021/11/14 04:02:21;;;;;;;3.40;3.03;;;;;;;;;;5013381;28;20029;-57
2021/11/14 04:04:46;;;;;;;3.67;3.05;;;;;;;;;;5018327;28;20026;-57
2021/11/14 04:07:12;;;;;;;3.63;3.08;;;;;;;;;;5015064;28;20038;-57
2021/11/14 04:09:37;;;;;;;4.45;4.05;;;;;;;;;;5012140;28;20041;-57
2021/11/14 04:12:03;;;;;;;3.65;3.13;;;;;;;;;;5016414;28;20589;-57
2021/11/14 04:14:29;;;;;;;3.25;2.88;;;;;;;;;;5012577;28;20033;-57
2021/11/14 04:16:55;;;;;;;5.90;4.07;;;;;;;;;;5011276;28;20333;-57
2021/11/14 04:19:21;;;;;;;4.57;3.65;;;;;;;;;;5014863;28;20056;-57
2021/11/14 04:21:46;;;;;;;3.78;3.38;;;;;;;;;;5011280;28;20021;-57
2021/11/14 04:24:12;;;;;;;4.50;3.70;;;;;;;;;;5015282;28;20033;-61
2021/11/14 04:26:37;;;;;;;6.10;4.32;;;;;;;;;;5014421;28;20044;-61
2021/11/14 04:29:04;;;;;;;7.60;4.75;;;;;;;;;;5015367;28;20021;-61
2021/11/14 04:31:29;;;;;;;4.05;3.15;;;;;;;;;;5012227;28;20053;-60
2021/11/14 04:33:55;;;;;;;4.53;3.30;;;;;;;;;;5018356;28;20029;-60
2021/11/14 04:36:20;;;;;;;4.00;3.33;;;;;;;;;;5015851;28;20938;-61
2021/11/14 04:38:45;;;;;;;4.47;3.40;;;;;;;;;;5014688;28;20038;-60
2021/11/14 04:41:11;;;;;;;4.28;3.80;;;;;;;;;;5014220;28;20041;-61
2021/11/14 04:43:36;;;;;;;4.18;3.78;;;;;;;;;;5012422;28;20030;-60
2021/11/14 04:46:02;;;;;;;4.85;3.95;;;;;;;;;;5017798;28;20515;-61
2021/11/14 04:48:27;;;;;;;4.20;3.47;;;;;;;;;;5014341;28;20041;-62
2021/11/14 04:50:53;;;;;;;4.13;3.72;;;;;;;;;;5013729;28;20033;-60
2021/11/14 04:53:19;;;;;;;4.43;3.55;;;;;;;;;;5011947;28;20109;-61
2021/11/14 04:55:45;;;;;;;4.57;3.20;;;;;;;;;;5013902;28;20140;-62
2021/11/14 04:58:13;;;;;;;3.70;3.30;;;;;;;;;;5009007;28;20072;-61
2021/11/14 05:00:51;;;;;;;3.78;3.38;;;;;;;;;;5013999;28;20034;-62
2021/11/14 05:03:18;;;;;;;5.65;3.85;;;;;;;;;;5013013;28;20034;-61
2021/11/14 05:05:44;;;;;;;3.95;3.55;;;;;;;;;;5014428;28;20447;-61
2021/11/14 05:08:10;;;;;;;3.40;3.03;;;;;;;;;;5012861;28;20046;-61
2021/11/14 05:10:37;;;;;;;4.28;3.88;;;;;;;;;;5019886;28;20044;-61
2021/11/14 05:13:03;;;;;;;3.85;3.17;;;;;;;;;;5016670;28;20443;-61
2021/11/14 05:15:29;;;;;;;4.30;3.90;;;;;;;;;;5020627;28;20059;-60
2021/11/14 05:17:54;;;;;;;4.05;3.15;;;;;;;;;;5018863;28;20034;-61
2021/11/14 05:20:20;;;;;;;3.60;3.25;;;;;;;;;;5017978;28;20037;-61
2021/11/14 05:22:45;;;;;;;3.85;2.80;;;;;;;;;;5019910;28;20022;-61
2021/11/14 05:25:11;;;;;;;3.13;2.65;;;;;;;;;;5016343;28;20121;-61
2021/11/14 05:27:37;;;;;;;3.55;3.03;;;;;;;;;;5016026;28;20507;-60
2021/11/14 05:30:06;;;;;;;3.42;3.03;;;;;;;;;;5018198;28;20029;-61
2021/11/14 05:32:31;;;;;;;4.57;3.72;;;;;;;;;;5015621;28;20351;-61
2021/11/14 05:34:57;;;;;;;3.95;3.55;;;;;;;;;;5015323;28;20041;-60
2021/11/14 05:37:22;;;;;;;3.53;3.22;;;;;;;;;;5018160;28;20030;-62
2021/11/14 05:39:48;;;;;;;3.92;3.42;;;;;;;;;;5015618;28;20132;-62
2021/11/14 05:42:13;;;;;;;4.35;3.63;;;;;;;;;;5016247;28;20033;-63
2021/11/14 05:44:39;;;;;;;3.97;3.17;;;;;;;;;;5014910;28;20033;-62
2021/11/14 05:47:04;;;;;;;3.55;3.10;;;;;;;;;;5020135;28;20578;-63
2021/11/14 05:49:30;;;;;;;3.40;3.10;;;;;;;;;;5019701;28;20356;-60
2021/11/14 05:51:55;;;;;;;3.40;2.80;;;;;;;;;;5015765;28;20033;-60
2021/11/14 05:54:21;;;;;;;4.18;3.00;;;;;;;;;;5017433;28;20049;-62
2021/11/14 05:56:46;;;;;;;5.07;3.00;;;;;;;;;;5014669;28;20030;-63
2021/11/14 06:02:35;;;;;;;3.80;3.45;;;;;;;;;;5017589;28;20033;-62
2021/11/14 06:04:35;;;;;;;3.30;2.78;;;;;;;;;;5012817;28;20046;-60
2021/11/14 06:07:01;;;;;;;4.22;3.50;;;;;;;;;;5012120;28;20030;-60
2021/11/14 06:09:26;;;;;;;10.93;3.85;;;;;;;;;;5018206;28;20026;-62
2021/11/14 06:11:54;;;;;;;3.08;2.58;;;;;;;;;;5017808;28;20328;-62
2021/11/14 06:14:19;;;;;;;4.10;3.10;;;;;;;;;;5014541;28;20049;-61
2021/11/14 06:16:45;;;;;;;3.88;3.35;;;;;;;;;;5016272;28;20021;-62
2021/11/14 06:19:10;;;;;;;4.10;3.67;;;;;;;;;;5019703;28;20069;-61
2021/11/14 06:21:36;;;;;;;3.72;3.33;;;;;;;;;;5015965;28;20033;-61
2021/11/14 06:24:01;;;;;;;3.40;3.10;;;;;;;;;;5016720;28;20034;-61
2021/11/14 06:26:27;;;;;;;3.50;3.20;;;;;;;;;;5019698;28;20033;-61
2021/11/14 06:28:52;;;;;;;4.20;3.58;;;;;;;;;;5016122;28;20065;-61
2021/11/14 06:31:17;;;;;;;4.03;3.63;;;;;;;;;;5014474;28;20038;-61
2021/11/14 06:33:43;;;;;;;3.88;3.35;;;;;;;;;;5014607;28;20121;-61
2021/11/14 06:36:08;;;;;;;5.15;3.03;;;;;;;;;;5020054;28;20045;-62
2021/11/14 06:38:34;;;;;;;3.10;2.80;;;;;;;;;;5017991;28;20356;-60
2021/11/14 06:40:59;;;;;;;4.28;3.88;;;;;;;;;;5015353;28;20038;-60
2021/11/14 06:43:25;;;;;;;4.30;3.58;;;;;;;;;;5018102;28;20044;-60
2021/11/14 06:45:51;;;;;;;3.80;3.35;;;;;;;;;;5020983;28;20025;-56
2021/11/14 06:48:17;;;;;;;4.78;3.97;;;;;;;;;;5016894;28;20029;-58
2021/11/14 06:50:42;;;;;;;4.63;3.47;;;;;;;;;;5018354;28;20103;-58
2021/11/14 06:53:08;;;;;;;3.97;3.58;;;;;;;;;;5017795;28;20026;-61
2021/11/14 06:55:33;;;;;;;4.45;3.60;;;;;;;;;;5017748;28;20029;-60
2021/11/14 06:57:59;;;;;;;3.97;3.58;;;;;;;;;;5014928;28;20384;-60
2021/11/14 07:00:25;;;;;;;3.50;2.92;;;;;;;;;;5013597;28;20052;-60
2021/11/14 07:02:51;;;;;;;3.10;2.78;;;;;;;;;;5013886;28;20112;-61
2021/11/14 07:05:17;;;;;;;3.60;3.13;;;;;;;;;;5013202;28;20124;-61
2021/11/14 07:07:43;;;;;;;3.60;3.25;;;;;;;;;;5018099;28;20029;-61
2021/11/14 07:10:11;;;;;;;4.32;3.35;;;;;;;;;;5017234;28;20110;-61
2021/11/14 07:12:37;;;;;;;4.15;3.15;;;;;;;;;;5013648;28;20471;-61
2021/11/14 07:15:06;;;;;;;3.97;3.53;;;;;;;;;;5017477;28;20352;-60
2021/11/14 07:17:31;;;;;;;4.35;3.95;;;;;;;;;;5015101;28;20033;-54
2021/11/14 07:19:58;;;;;;;4.15;2.97;;;;;;;;;;5015052;28;20038;-56
2021/11/14 07:22:25;;;;;;;3.92;3.53;;;;;;;;;;5012956;28;20033;-56
2021/11/14 07:24:50;;;;;;;3.83;2.80;;;;;;;;;;5016314;28;20034;-61
2021/11/14 07:27:16;;;;;;;4.13;3.30;;;;;;;;;;5016261;28;20034;-61
2021/11/14 07:29:41;;;;;;;4.18;3.78;;;;;;;;;;5014941;28;20029;-62
2021/11/14 07:32:08;;;;;;;4.97;4.22;;;;;;;;;;5015343;28;20049;-61
2021/11/14 07:34:33;;;;;;;6.65;5.47;;;;;;;;;;5013690;28;20463;-61
2021/11/14 07:36:59;;;;;;;5.65;4.55;;;;;;;;;;5016757;28;20045;-61
2021/11/14 07:39:24;;;;;;;5.65;4.13;;;;;;;;;;5014361;28;20030;-61
2021/11/14 07:41:49;;;;;;;4.72;4.05;;;;;;;;;;5014064;28;20654;-61
2021/11/14 07:44:15;;;;;;;4.05;3.45;;;;;;;;;;5015320;28;20033;-61
2021/11/14 07:46:40;;;;;;;4.47;3.08;;;;;;;;;;5019109;28;20104;-61
2021/11/14 07:49:06;;;;;;;4.32;3.92;;;;;;;;;;5014688;28;20037;-52
2021/11/14 07:51:31;;;;;;;5.05;4.55;;;;;;;;;;5031745;28;20124;-54
2021/11/14 07:54:00;;;;;;;4.18;3.67;;;;;;;;;;5015053;28;20114;-55
2021/11/14 07:56:26;;;;;;;4.25;3.72;;;;;;;;;;5015890;28;20034;-54
2021/11/14 07:58:51;;;;;;;8.07;3.83;;;;;;;;;;5017364;28;20045;-52
2021/11/14 08:01:17;;;;;;;4.25;3.80;;;;;;;;;;5016613;28;20025;-52
2021/11/14 08:03:42;;;;;;;5.07;4.25;;;;;;;;;;5015403;28;20380;-52
2021/11/14 08:06:08;;;;;;;3.47;3.17;;;;;;;;;;5012165;28;20057;-52
2021/11/14 08:08:33;;;;;;;4.75;3.67;;;;;;;;;;5013115;28;20041;-54
2021/11/14 08:10:59;;;;;;;4.53;4.10;;;;;;;;;;5014908;28;20371;-55
2021/11/14 08:13:24;;;;;;;5.57;4.22;;;;;;;;;;5013732;28;20045;-55
2021/11/14 08:15:50;;;;;;;4.65;3.60;;;;;;;;;;5014177;28;20092;-52
2021/11/14 08:18:17;;;;;;;5.55;4.38;;;;;;;;;;5013042;28;20546;-52
2021/11/14 08:20:43;;;;;;;4.82;4.32;;;;;;;;;;5020631;28;20034;-60
2021/11/14 08:23:09;;;;;;;6.13;4.65;;;;;;;;;;5014977;28;20440;-60
2021/11/14 08:25:35;;;;;;;4.63;4.22;;;;;;;;;;5014428;28;20025;-61
2021/11/14 08:28:02;;;;;;;4.50;4.10;;;;;;;;;;5012514;28;20423;-61
2021/11/14 08:30:28;;;;;;;6.32;3.65;;;;;;;;;;5012464;28;20108;-60
2021/11/14 08:32:53;;;;;;;4.65;4.22;;;;;;;;;;5011465;28;20033;-60
2021/11/14 08:35:20;;;;;;;4.07;3.67;;;;;;;;;;5016297;28;20325;-55
2021/11/14 08:37:48;;;;;;;6.90;4.22;;;;;;;;;;5005788;28;20116;-60
2021/11/14 08:40:16;;;;;;;5.93;5.25;;;;;;;;;;5017252;28;20038;-59
2021/11/14 08:42:42;;;;;;;5.28;4.78;;;;;;;;;;5016771;28;20045;-53
2021/11/14 08:45:09;;;;;;;6.22;3.83;;;;;;;;;;5015324;28;20042;-52
2021/11/14 08:47:35;;;;;;;5.22;4.70;;;;;;;;;;5013173;28;20497;-60
2021/11/14 08:50:01;;;;;;;4.80;4.07;;;;;;;;;;5014370;28;20053;-54
2021/11/14 08:52:28;;;;;;;4.85;3.78;;;;;;;;;;5015842;28;20479;-58
2021/11/14 08:54:53;;;;;;;7.22;4.75;;;;;;;;;;5015686;28;20057;-60
2021/11/14 08:57:19;;;;;;;4.15;3.42;;;;;;;;;;5019591;28;20475;-60
2021/11/14 08:59:46;;;;;;;4.32;3.80;;;;;;;;;;5012464;28;20041;-59
2021/11/14 09:02:12;;;;;;;4.25;3.85;;;;;;;;;;5015060;28;20044;-60
2021/11/14 09:04:37;;;;;;;4.97;4.13;;;;;;;;;;5013744;28;20034;-59
2021/11/14 09:07:04;;;;;;;5.35;4.55;;;;;;;;;;5009759;28;20034;-59
2021/11/14 09:09:30;;;;;;;4.85;4.35;;;;;;;;;;5012010;28;20088;-59
2021/11/14 09:11:55;;;;;;;3.95;3.40;;;;;;;;;;5015949;28;20391;-60
2021/11/14 09:14:22;;;;;;;6.78;5.60;;;;;;;;;;5015121;28;20044;-61
2021/11/14 09:16:50;;;;;;;5.97;4.97;;;;;;;;;;5018858;28;20113;-59
2021/11/14 09:19:16;;;;;;;5.15;4.53;;;;;;;;;;5012849;28;20129;-60
2021/11/14 09:21:41;;;;;;;5.22;3.97;;;;;;;;;;5011437;28;20606;-55
2021/11/14 09:24:08;;;;;;;3.97;3.55;;;;;;;;;;5012227;28;20038;-54
2021/11/14 09:26:34;;;;;;;4.10;3.63;;;;;;;;;;5010454;28;21910;-54
2021/11/14 09:29:00;;;;;;;5.63;4.00;;;;;;;;;;5014394;28;20080;-54
2021/11/14 09:31:26;;;;;;;4.47;4.07;;;;;;;;;;5013631;28;20105;-58
2021/11/14 09:33:54;;;;;;;3.88;3.58;;;;;;;;;;5010784;28;20117;-55
2021/11/14 09:36:21;;;;;;;4.75;4.25;;;;;;;;;;5012723;28;20566;-55
2021/11/14 09:38:48;;;;;;;4.32;3.92;;;;;;;;;;5011808;28;20116;-55
2021/11/14 09:41:13;;;;;;;5.82;4.88;;;;;;;;;;5015185;28;20075;-53
2021/11/14 09:43:38;;;;;;;4.00;3.55;;;;;;;;;;5010488;28;20034;-53
2021/11/14 09:46:04;;;;;;;13.00;4.85;;;;;;;;;;5015237;28;20038;-54
2021/11/14 09:48:30;;;;;;;4.13;3.53;;;;;;;;;;5014225;28;20025;-56
2021/11/14 09:50:57;;;;;;;5.63;4.45;;;;;;;;;;5012939;28;20522;-54
2021/11/14 09:53:35;;;;;;;4.75;4.28;;;;;;;;;;5010359;28;20046;-55
2021/11/14 09:56:03;;;;;;;4.03;3.05;;;;;;;;;;5014536;28;20053;-56
2021/11/14 09:58:28;;;;;;;6.25;3.63;;;;;;;;;;5019296;28;20038;-52
2021/11/14 10:00:54;;;;;;;5.43;3.67;;;;;;;;;;5017451;28;20040;-55
2021/11/14 10:03:21;;;;;;;4.07;3.47;;;;;;;;;;5016125;28;20037;-60
2021/11/14 10:05:48;;;;;;;5.13;4.47;;;;;;;;;;5016244;28;20030;-59
2021/11/14 10:08:15;;;;;;;4.55;4.07;;;;;;;;;;5015900;28;20494;-56
2021/11/14 10:10:52;;;;;;;5.00;4.32;;;;;;;;;;5018504;28;20160;-55
2021/11/14 10:13:22;;;;;;;4.38;3.97;;;;;;;;;;5017077;28;20044;-55
2021/11/14 10:15:50;;;;;;;4.28;3.88;;;;;;;;;;5017665;28;20258;-53
2021/11/14 10:18:21;;;;;;;5.80;4.93;;;;;;;;;;5019132;28;20044;-53
2021/11/14 10:20:50;;;;;;;6.38;4.35;;;;;;;;;;5003200;28;20041;-55
2021/11/14 10:23:17;;;;;;;8.07;4.53;;;;;;;;;;5016567;28;20471;-53
2021/11/14 10:25:44;;;;;;;4.47;3.72;;;;;;;;;;5019097;28;20466;-59
2021/11/14 10:28:10;;;;;;;4.28;3.85;;;;;;;;;;5012516;28;20116;-56
2021/11/14 10:30:44;;;;;;;5.57;4.93;;;;;;;;;;5014836;28;20037;-53
2021/11/14 10:33:13;;;;;;;5.07;4.55;;;;;;;;;;5016908;28;20370;-53
2021/11/14 10:35:41;;;;;;;5.03;4.45;;;;;;;;;;5015146;28;20987;-60
2021/11/14 10:38:12;;;;;;;5.63;4.20;;;;;;;;;;5019448;28;20409;-58
2021/11/14 10:40:45;;;;;;;4.50;4.10;;;;;;;;;;5013694;28;20067;-59
2021/11/14 10:43:10;;;;;;;4.28;3.80;;;;;;;;;;5016724;28;20649;-59
2021/11/14 10:45:38;;;;;;;5.93;4.40;;;;;;;;;;5012873;28;20057;-58
2021/11/14 10:48:14;;;;;;;7.90;4.70;;;;;;;;;;5014607;28;20460;-60
2021/11/14 10:50:45;;;;;;;4.00;3.58;;;;;;;;;;5018363;28;20600;-55
2021/11/14 10:53:14;;;;;;;4.43;3.88;;;;;;;;;;5014681;28;20029;-56
2021/11/14 10:55:45;;;;;;;4.97;4.18;;;;;;;;;;5015138;28;20113;-56
2021/11/14 10:58:12;;;;;;;5.60;4.15;;;;;;;;;;5013575;28;20022;-51
2021/11/14 11:00:39;;;;;;;5.15;4.43;;;;;;;;;;5014311;28;20025;-54
2021/11/14 11:03:05;;;;;;;4.47;4.00;;;;;;;;;;5015700;28;20042;-52
2021/11/14 11:05:32;;;;;;;4.20;3.80;;;;;;;;;;5013059;28;20037;-53
2021/11/14 11:08:00;;;;;;;4.90;4.35;;;;;;;;;;5012892;28;20532;-55
2021/11/14 11:10:39;;;;;;;5.32;4.80;;;;;;;;;;5016796;28;20030;-55
2021/11/14 11:13:08;;;;;;;7.28;3.80;;;;;;;;;;5016187;28;20036;-55
2021/11/14 11:15:46;;;;;;;6.55;4.78;;;;;;;;;;5012646;28;20128;-54
2021/11/14 11:18:14;;;;;;;4.10;3.70;;;;;;;;;;5012231;28;20095;-55
2021/11/14 11:20:41;;;;;;;4.57;4.05;;;;;;;;;;5014011;28;20054;-54
2021/11/14 11:23:10;;;;;;;4.72;4.10;;;;;;;;;;5013983;28;20037;-54
2021/11/14 11:25:41;;;;;;;5.18;4.60;;;;;;;;;;5017965;28;20033;-57
2021/11/14 11:28:31;;;;;;;4.80;4.30;;;;;;;;;;5014938;28;20034;-58
2021/11/14 11:31:15;;;;;;;4.47;4.07;;;;;;;;;;5013379;28;20100;-52
2021/11/14 11:33:46;;;;;;;4.78;3.95;;;;;;;;;;5011651;28;20499;-54
2021/11/14 11:36:14;;;;;;;4.60;4.20;;;;;;;;;;5017571;28;20495;-59
2021/11/14 11:38:44;;;;;;;4.10;3.70;;;;;;;;;;5013062;28;20448;-60
2021/11/14 11:41:12;;;;;;;4.68;3.88;;;;;;;;;;5013380;28;20453;-55
2021/11/14 11:43:38;;;;;;;4.40;3.78;;;;;;;;;;5016156;28;20061;-53
2021/11/14 11:46:08;;;;;;;4.53;3.97;;;;;;;;;;5017196;28;20591;-54
2021/11/14 11:48:37;;;;;;;4.88;3.90;;;;;;;;;;5015889;28;20143;-54
2021/11/14 11:51:19;;;;;;;4.47;4.07;;;;;;;;;;4999505;28;20068;-56
2021/11/14 11:53:56;;;;;;;5.63;4.03;;;;;;;;;;5015931;28;20033;-53
2021/11/14 11:56:22;;;;;;;5.43;4.13;;;;;;;;;;5017822;28;20670;-55
2021/11/14 11:58:50;;;;;;;4.35;3.08;;;;;;;;;;5015366;28;20033;-56
2021/11/14 12:01:31;;;;;;;4.47;3.80;;;;;;;;;;5011288;28;20053;-51
2021/11/14 12:04:20;;;;;;;4.60;3.90;;;;;;;;;;5012902;28;20526;-60
2021/11/14 12:06:58;;;;;;;4.25;3.60;;;;;;;;;;5006109;28;20113;-61
2021/11/14 12:09:26;;;;;;;5.97;4.47;;;;;;;;;;5014260;28;20048;-59
2021/11/14 12:11:52;;;;;;;4.30;3.90;;;;;;;;;;5013211;28;20483;-59
2021/11/14 12:14:31;;;;;;;6.40;4.50;;;;;;;;;;5015412;28;20475;-59
2021/11/14 12:17:01;;;;;;;4.78;3.95;;;;;;;;;;5013433;28;20099;-51
2021/11/14 12:19:31;;;;;;;4.00;3.60;;;;;;;;;;5016479;28;20033;-52
2021/11/14 12:21:59;;;;;;;5.28;4.75;;;;;;;;;;5014919;28;20029;-60
2021/11/14 12:24:24;;;;;;;5.65;4.35;;;;;;;;;;5014081;28;20045;-60
2021/11/14 12:26:50;;;;;;;5.13;4.63;;;;;;;;;;5013721;28;20037;-60
2021/11/14 12:29:33;;;;;;;5.18;4.18;;;;;;;;;;5010908;28;20029;-58
2021/11/14 12:32:00;;;;;;;5.00;4.28;;;;;;;;;;5016179;28;20132;-61
2021/11/14 12:34:32;;;;;;;4.70;4.25;;;;;;;;;;5012579;28;20533;-60
2021/11/14 12:37:09;;;;;;;5.32;4.47;;;;;;;;;;5015224;28;20463;-60
2021/11/14 12:39:37;;;;;;;5.80;4.75;;;;;;;;;;5017450;28;20529;-61
2021/11/14 12:42:08;;;;;;;6.43;4.40;;;;;;;;;;5015240;28;20109;-60
2021/11/14 12:44:38;;;;;;;5.03;4.53;;;;;;;;;;5012988;28;20038;-55
2021/11/14 12:47:17;;;;;;;7.53;5.57;;;;;;;;;;5012474;28;20115;-56
2021/11/14 12:49:47;;;;;;;7.10;5.53;;;;;;;;;;5013938;28;20029;-54
2021/11/14 12:52:29;;;;;;;5.25;4.68;;;;;;;;;;5013874;28;20056;-60
2021/11/14 12:54:56;;;;;;;8.68;4.93;;;;;;;;;;5015145;28;20030;-59
2021/11/14 12:57:26;;;;;;;5.45;4.72;;;;;;;;;;5015431;28;20459;-53
2021/11/14 12:59:52;;;;;;;4.95;4.25;;;;;;;;;;5015241;28;20359;-58
2021/11/14 13:02:23;;;;;;;4.43;3.83;;;;;;;;;;5015397;28;20041;-58
2021/11/14 13:04:50;;;;;;;9.48;4.72;;;;;;;;;;5013064;28;20037;-58
2021/11/14 13:07:29;;;;;;;4.90;4.18;;;;;;;;;;5016019;28;20044;-55
2021/11/14 13:09:56;;;;;;;6.65;5.07;;;;;;;;;;5015296;28;20028;-55
2021/11/14 13:12:24;;;;;;;7.22;4.95;;;;;;;;;;5016170;28;20037;-56
2021/11/14 13:14:52;;;;;;;8.20;6.38;;;;;;;;;;5012591;28;20029;-59
2021/11/14 13:17:18;;;;;;;6.65;5.57;;;;;;;;;;5014386;28;20456;-59
2021/11/14 13:19:45;;;;;;;5.78;4.95;;;;;;;;;;5016112;28;20040;-59
2021/11/14 13:22:12;;;;;;;4.60;4.03;;;;;;;;;;5015527;28;20111;-58
2021/11/14 13:24:39;;;;;;;5.45;4.32;;;;;;;;;;5014060;28;20125;-59
2021/11/14 13:27:08;;;;;;;6.55;5.57;;;;;;;;;;5016815;28;20044;-55
2021/11/14 13:29:37;;;;;;;5.43;4.50;;;;;;;;;;5015955;28;20046;-55
2021/11/14 13:32:09;;;;;;;5.68;4.50;;;;;;;;;;5017391;28;20131;-52
2021/11/14 13:34:36;;;;;;;5.97;4.30;;;;;;;;;;5016041;28;20026;-59
2021/11/14 13:37:06;;;;;;;7.57;5.32;;;;;;;;;;5019347;28;20030;-58
2021/11/14 13:39:37;;;;;;;7.60;5.85;;;;;;;;;;5016831;28;20033;-52
2021/11/14 13:42:08;;;;;;;5.22;4.32;;;;;;;;;;5016196;28;20101;-55
2021/11/14 13:44:44;;;;;;;8.52;5.68;;;;;;;;;;5015290;28;20057;-51
2021/11/14 13:47:18;;;;;;;4.60;4.20;;;;;;;;;;5019254;28;20520;-54
2021/11/14 13:49:47;;;;;;;6.22;5.18;;;;;;;;;;5015968;28;20033;-60
2021/11/14 13:52:15;;;;;;;5.22;4.60;;;;;;;;;;5018111;28;20034;-59
2021/11/14 13:54:52;;;;;;;7.47;6.00;;;;;;;;;;5016039;28;20709;-58
2021/11/14 13:57:21;;;;;;;6.57;5.32;;;;;;;;;;5014935;28;20049;-58
2021/11/14 13:59:47;;;;;;;6.28;5.50;;;;;;;;;;5014852;28;20048;-59
2021/11/14 14:02:13;;;;;;;6.93;5.28;;;;;;;;;;5019471;28;20132;-58
2021/11/14 14:05:09;;;;;;;6.38;5.75;;;;;;;;;;5016931;28;20026;-53
2021/11/14 14:07:37;;;;;;;5.05;4.28;;;;;;;;;;5017478;28;20135;-54
2021/11/14 14:10:17;;;;;;;6.72;5.13;;;;;;;;;;5018672;28;20033;-54
2021/11/14 14:12:54;;;;;;;12.88;5.38;;;;;;;;;;5014477;28;20048;-58
2021/11/14 14:15:38;;;;;;;6.88;5.72;;;;;;;;;;5015088;28;20120;-58
2021/11/14 14:18:12;;;;;;;6.03;4.70;;;;;;;;;;5015636;28;20122;-58
2021/11/14 14:20:38;;;;;;;6.07;5.43;;;;;;;;;;5017878;28;20100;-58
2021/11/14 14:23:04;;;;;;;6.00;4.80;;;;;;;;;;5016047;28;20062;-59
2021/11/14 14:25:34;;;;;;;5.53;4.82;;;;;;;;;;5017715;28;20034;-51
2021/11/14 14:28:13;;;;;;;7.38;5.47;;;;;;;;;;5015280;28;20049;-51
2021/11/14 14:30:40;;;;;;;8.15;5.20;;;;;;;;;;5014249;28;20450;-54
2021/11/14 14:33:08;;;;;;;6.55;4.75;;;;;;;;;;5015241;28;20044;-53
2021/11/14 14:35:52;;;;;;;5.80;5.25;;;;;;;;;;5012785;28;20050;-54
2021/11/14 14:38:24;;;;;;;6.65;5.28;;;;;;;;;;5020046;28;20584;-54
2021/11/14 14:40:52;;;;;;;4.25;3.85;;;;;;;;;;5017055;28;20021;-51
2021/11/14 14:43:24;;;;;;;5.70;4.70;;;;;;;;;;5014763;28;20103;-54
2021/11/14 14:46:15;;;;;;;4.53;4.03;;;;;;;;;;5017220;28;20031;-54
2021/11/14 14:48:41;;;;;;;7.20;4.90;;;;;;;;;;5013726;28;20783;-58
2021/11/14 14:51:10;;;;;;;5.57;4.90;;;;;;;;;;5018288;28;20052;-58